Time;durP1;ratioP1;P1;durP2;ratioP2;P2;SDS_P1;SDS_P2;PMS_P1;PMS_P2;Temp;Humidity;BMP_temperature;BMP_pressure;BME280_temperature;BME280_humidity;BME280_pressure;Samples;Min_cycle;Max_cycle;Signal;HPM_P1;HPM_P2
2022/10/25 00:00:51;;;;;;;0.20;0.20;;;;;;;;;;20803710;28;20765;-75
2022/10/25 00:10:52;;;;;;;1.73;0.57;;;;;;;;;;20800354;28;20206;-75
2022/10/25 00:20:54;;;;;;;0.40;0.40;;;;;;;;;;20799179;28;20230;-74
2022/10/25 00:31:06;;;;;;;0.40;0.30;;;;;;;;;;20811655;28;20333;-74
2022/10/25 00:41:09;;;;;;;1.03;0.30;;;;;;;;;;20815836;28;20439;-74
2022/10/25 00:51:11;;;;;;;0.53;0.40;;;;;;;;;;20829275;28;20218;-74
2022/10/25 01:01:14;;;;;;;0.90;0.30;;;;;;;;;;20812869;28;20210;-75
2022/10/25 01:11:16;;;;;;;0.73;0.40;;;;;;;;;;20812504;28;20202;-72
2022/10/25 01:21:43;;;;;;;1.20;0.50;;;14.10;99.90;;;;;;20830606;28;20214;-73
2022/10/25 01:31:51;;;;;;;2.23;0.33;;;14.30;99.90;;;;;;20830201;28;20716;-72
2022/10/25 01:42:12;;;;;;;0.70;0.43;;;;;;;;;;20794478;28;20222;-72
2022/10/25 01:52:18;;;;;;;0.30;0.30;;;14.00;99.90;;;;;;20813494;28;20214;-74
2022/10/25 02:02:20;;;;;;;0.53;0.30;;;;;;;;;;20826758;28;20273;-74
2022/10/25 02:12:32;;;;;;;1.03;0.40;;;14.10;99.90;;;;;;20825436;28;20600;-74
2022/10/25 02:22:34;;;;;;;0.60;0.40;;;;;;;;;;20803991;28;20237;-74
2022/10/25 02:32:36;;;;;;;1.13;0.40;;;;;;;;;;20823220;28;20206;-74
2022/10/25 02:42:38;;;;;;;0.53;0.40;;;;;;;;;;20805489;28;20590;-74
2022/10/25 02:52:39;;;;;;;1.30;0.40;;;;;;;;;;20822714;28;20210;-74
2022/10/25 03:02:41;;;;;;;0.87;0.40;;;;;;;;;;20821864;28;20215;-74
2022/10/25 03:12:42;;;;;;;0.30;0.30;;;;;;;;;;20820696;28;20210;-74
2022/10/25 03:22:44;;;;;;;1.30;0.40;;;;;;;;;;20819179;28;20210;-74
2022/10/25 03:32:46;;;;;;;2.10;0.40;;;;;;;;;;20808862;28;20210;-72
2022/10/25 03:42:48;;;;;;;2.50;0.70;;;;;;;;;;20804754;28;20351;-72
2022/10/25 03:52:50;;;;;;;0.83;0.50;;;;;;;;;;20796992;28;20198;-72
2022/10/25 04:02:59;;;;;;;0.37;0.37;;;13.60;99.90;;;;;;20788180;28;20222;-72
2022/10/25 04:13:01;;;;;;;0.70;0.30;;;;;;;;;;20820054;28;20218;-73
2022/10/25 04:23:03;;;;;;;1.13;0.70;;;;;;;;;;20818050;28;20273;-72
2022/10/25 04:33:05;;;;;;;1.50;0.43;;;;;;;;;;20815100;28;20697;-72
2022/10/25 04:43:06;;;;;;;1.10;0.40;;;;;;;;;;20817903;28;20307;-72
2022/10/25 04:53:08;;;;;;;1.10;0.60;;;;;;;;;;20845803;28;20214;-73
2022/10/25 05:03:10;;;;;;;1.27;0.40;;;;;;;;;;20880480;28;20241;-72
2022/10/25 05:13:11;;;;;;;1.57;0.50;;;;;;;;;;20904135;28;20206;-72
2022/10/25 05:23:13;;;;;;;1.40;0.80;;;;;;;;;;20820966;28;20239;-73
2022/10/25 05:33:15;;;;;;;0.97;0.40;;;;;;;;;;20813383;28;20261;-73
2022/10/25 05:43:17;;;;;;;1.43;0.63;;;;;;;;;;20796597;28;20210;-73
2022/10/25 05:53:19;;;;;;;3.00;0.80;;;;;;;;;;20799509;28;20214;-72
2022/10/25 06:03:20;;;;;;;1.23;0.60;;;;;;;;;;20805363;28;20593;-73
2022/10/25 06:13:22;;;;;;;0.80;0.50;;;;;;;;;;20809059;28;20268;-72
2022/10/25 06:23:24;;;;;;;0.93;0.50;;;;;;;;;;20829520;28;20223;-73
2022/10/25 06:33:25;;;;;;;0.60;0.50;;;;;;;;;;20819411;28;20206;-72
2022/10/25 06:43:27;;;;;;;0.90;0.40;;;;;;;;;;20803508;28;20241;-72
2022/10/25 06:53:29;;;;;;;0.90;0.30;;;;;;;;;;20819804;28;20401;-72
2022/10/25 07:03:35;;;;;;;1.83;0.53;;;;;;;;;;20828521;28;20276;-80
2022/10/25 07:13:36;;;;;;;2.10;0.50;;;;;;;;;;20829472;28;20215;-82
2022/10/25 07:23:42;;;;;;;1.57;0.50;;;13.60;99.90;;;;;;20813710;28;20795;-81
2022/10/25 07:33:44;;;;;;;1.50;0.90;;;;;;;;;;20793468;28;20678;-80
2022/10/25 07:43:46;;;;;;;2.87;0.70;;;;;;;;;;20819297;28;20229;-80
2022/10/25 07:53:48;;;;;;;0.93;0.50;;;;;;;;;;20818398;28;20226;-81
2022/10/25 08:03:51;;;;;;;0.77;0.40;;;;;;;;;;20825546;28;20681;-82
2022/10/25 08:13:53;;;;;;;2.77;0.77;;;;;;;;;;20832955;28;20218;-81
2022/10/25 08:23:55;;;;;;;1.10;0.60;;;;;;;;;;20812370;28;20238;-72
2022/10/25 08:33:57;;;;;;;3.20;0.53;;;;;;;;;;20820822;28;20210;-72
2022/10/25 08:43:59;;;;;;;0.57;0.47;;;;;;;;;;20841761;28;20226;-72
2022/10/25 08:54:11;;;;;;;0.40;0.40;;;14.30;99.90;;;;;;20877196;28;20233;-70
2022/10/25 09:04:14;;;;;;;1.70;0.70;;;;;;;;;;20832470;28;20248;-70
2022/10/25 09:14:22;;;;;;;1.30;0.50;;;14.50;99.90;;;;;;20813062;28;20191;-71
2022/10/25 09:24:38;;;;;;;1.53;0.70;;;14.60;99.90;;;;;;20837443;28;20191;-71
2022/10/25 09:34:40;;;;;;;2.33;0.53;;;;;;;;;;20830789;28;20234;-71
2022/10/25 09:44:47;;;;;;;3.00;0.70;;;14.70;99.90;;;;;;20826536;28;20218;-70
2022/10/25 09:55:12;;;;;;;3.70;0.87;;;14.80;99.90;;;;;;20824865;28;20288;-72
2022/10/25 10:05:15;;;;;;;2.97;0.60;;;;;;;;;;20809830;28;20218;-72
2022/10/25 10:15:53;;;;;;;2.23;0.60;;;;;;;;;;20827107;28;20681;-70
2022/10/25 10:25:55;;;;;;;1.33;0.43;;;15.20;99.90;;;;;;20760114;28;20586;-70
2022/10/25 10:36:24;;;;;;;2.53;0.80;;;15.30;99.90;;;;;;20829696;28;20257;-69
2022/10/25 10:46:26;;;;;;;1.53;0.90;;;;;;;;;;20832697;28;20209;-70
2022/10/25 10:56:29;;;;;;;1.03;0.60;;;;;;;;;;20816131;28;20585;-69
2022/10/25 11:06:35;;;;;;;1.00;0.50;;;15.70;99.90;;;;;;20828162;28;20245;-69
2022/10/25 11:16:36;;;;;;;1.50;0.40;;;;;;;;;;20810981;28;20360;-70
2022/10/25 11:26:47;;;;;;;3.60;0.87;;;;;;;;;;20820763;28;20198;-70
2022/10/25 11:37:11;;;;;;;0.67;0.30;;;;;;;;;;20820046;28;20221;-70
2022/10/25 11:47:27;;;;;;;0.90;0.50;;;15.80;99.90;;;;;;20819333;28;20195;-71
2022/10/25 11:57:54;;;;;;;1.33;0.27;;;15.70;99.90;;;;;;20820573;28;20221;-72
2022/10/25 12:08:28;;;;;;;0.90;0.40;;;15.90;99.90;;;;;;20818687;28;20252;-72
2022/10/25 12:18:39;;;;;;;4.57;0.90;;;16.10;99.90;;;;;;20818215;28;20214;-72
2022/10/25 12:28:47;;;;;;;0.80;0.50;;;15.90;99.90;;;;;;20810810;28;20597;-73
2022/10/25 12:38:49;;;;;;;0.90;0.40;;;;;;;;;;20816626;28;20234;-73
2022/10/25 12:49:06;;;;;;;0.30;0.30;;;;;;;;;;20822872;28;20359;-73
2022/10/25 12:59:17;;;;;;;0.93;0.40;;;;;;;;;;20801445;28;20249;-75
2022/10/25 13:09:20;;;;;;;2.77;0.70;;;;;;;;;;20809703;28;20249;-75
2022/10/25 13:19:22;;;;;;;1.97;0.57;;;;;;;;;;20825757;28;20223;-74
2022/10/25 13:29:46;;;;;;;1.23;0.40;;;17.00;99.90;;;;;;20980928;22;20225;-73
2022/10/25 13:39:53;;;;;;;0.97;0.40;;;;;;;;;;20994911;28;20278;-76
2022/10/25 13:49:55;;;;;;;3.07;0.50;;;;;;;;;;20996110;28;20282;-75
2022/10/25 14:00:00;;;;;;;1.20;0.60;;;17.30;99.90;;;;;;21039758;28;20220;-75
2022/10/25 14:10:03;;;;;;;0.97;0.57;;;16.40;99.90;;;;;;21074048;28;20221;-75
2022/10/25 14:20:12;;;;;;;1.23;0.40;;;17.20;99.90;;;;;;21074611;28;20212;-75
2022/10/25 14:30:24;;;;;;;3.40;0.53;;;;;;;;;;21056262;28;20212;-75
2022/10/25 14:40:29;;;;;;;0.83;0.37;;;16.90;99.90;;;;;;21059457;28;20208;-75
2022/10/25 14:50:31;;;;;;;1.97;0.53;;;;;;;;;;20993313;28;20259;-75
2022/10/25 15:00:33;;;;;;;2.53;0.40;;;;;;;;;;21039633;28;20639;-73
2022/10/25 15:10:43;;;;;;;1.40;0.47;;;;;;;;;;21073231;28;20204;-73
2022/10/25 15:20:48;;;;;;;5.80;0.97;;;16.60;99.90;;;;;;21071748;28;20286;-73
2022/10/25 15:30:50;;;;;;;2.10;0.60;;;;;;;;;;21052573;28;20214;-76
2022/10/25 15:40:52;;;;;;;1.27;0.40;;;;;;;;;;21068526;28;20228;-76
2022/10/25 15:50:56;;;;;;;2.53;0.60;;;;;;;;;;21033988;28;20200;-74
2022/10/25 16:00:57;;;;;;;2.33;0.70;;;;;;;;;;21049294;28;20224;-74
2022/10/25 16:10:59;;;;;;;3.10;1.17;;;;;;;;;;21007975;28;20201;-73
2022/10/25 16:21:01;;;;;;;4.07;1.77;;;;;;;;;;21030120;28;20497;-74
2022/10/25 16:31:02;;;;;;;2.33;1.27;;;;;;;;;;21059164;28;20247;-73
2022/10/25 16:41:05;;;;;;;3.47;1.40;;;;;;;;;;20975127;28;20374;-73
2022/10/25 16:51:10;;;;;;;6.40;1.80;;;;;;;;;;20982242;28;20204;-73
2022/10/25 17:01:16;;;;;;;2.83;1.30;;;;;;;;;;20958509;28;20209;-73
2022/10/25 17:11:18;;;;;;;4.63;1.47;;;;;;;;;;20949718;28;20241;-74
2022/10/25 17:21:20;;;;;;;3.90;1.10;;;;;;;;;;20928992;28;20254;-73
2022/10/25 17:31:21;;;;;;;4.27;1.30;;;;;;;;;;20984418;28;20217;-73
2022/10/25 17:41:23;;;;;;;1.83;0.80;;;;;;;;;;20974418;28;20239;-73
2022/10/25 17:51:25;;;;;;;2.50;1.00;;;;;;;;;;20977527;28;20248;-74
2022/10/25 18:01:30;;;;;;;4.67;0.90;;;;;;;;;;20891611;28;20222;-73
2022/10/25 18:11:31;;;;;;;0.90;0.50;;;;;;;;;;20977204;28;20262;-74
2022/10/25 18:21:33;;;;;;;0.67;0.47;;;;;;;;;;20942860;28;20270;-74
2022/10/25 18:31:35;;;;;;;4.70;1.93;;;;;;;;;;21037892;28;20646;-73
2022/10/25 18:41:39;;;;;;;1.97;0.80;;;;;;;;;;21051370;28;20220;-74
2022/10/25 18:51:41;;;;;;;2.27;0.70;;;;;;;;;;21043327;28;20270;-74
2022/10/25 19:01:43;;;;;;;5.67;0.80;;;;;;;;;;20964954;28;20212;-74
2022/10/25 19:11:44;;;;;;;1.30;0.60;;;;;;;;;;21011290;28;20239;-74
2022/10/25 19:21:46;;;;;;;1.73;0.90;;;;;;;;;;21076150;28;20258;-75
2022/10/25 19:31:50;;;;;;;2.93;1.40;;;;;;;;;;20998503;28;20231;-74
2022/10/25 19:41:53;;;;;;;3.27;1.80;;;;;;;;;;20977107;28;20220;-74
2022/10/25 19:51:54;;;;;;;2.83;1.77;;;;;;;;;;20946826;28;20278;-73
2022/10/25 20:01:56;;;;;;;2.90;1.70;;;;;;;;;;20946750;28;20217;-73
2022/10/25 20:11:58;;;;;;;3.97;1.90;;;;;;;;;;20959992;28;20719;-74
2022/10/25 20:21:59;;;;;;;4.03;1.70;;;;;;;;;;20955643;28;20225;-74
2022/10/25 20:32:02;;;;;;;3.07;1.53;;;;;;;;;;20942241;28;20279;-74
2022/10/25 20:42:03;;;;;;;3.13;1.70;;;;;;;;;;20979248;28;20294;-74
2022/10/25 20:52:05;;;;;;;3.07;1.53;;;;;;;;;;20979362;28;20275;-74
2022/10/25 21:02:08;;;;;;;4.47;2.00;;;;;;;;;;20994882;28;20501;-74
2022/10/25 21:12:10;;;;;;;3.57;1.70;;;;;;;;;;20998577;28;20217;-74
2022/10/25 21:22:12;;;;;;;3.20;1.80;;;;;;;;;;21002903;28;20212;-74
2022/10/25 21:32:13;;;;;;;6.47;1.90;;;;;;;;;;21004550;28;20231;-74
2022/10/25 21:42:15;;;;;;;3.40;1.30;;;;;;;;;;21008600;28;20243;-73
2022/10/25 21:52:17;;;;;;;3.53;1.50;;;;;;;;;;20986177;28;20263;-75
2022/10/25 22:02:18;;;;;;;2.87;0.90;;;;;;;;;;20988880;28;20558;-74
2022/10/25 22:12:20;;;;;;;2.23;0.97;;;;;;;;;;21007560;28;20231;-74
2022/10/25 22:22:22;;;;;;;1.73;0.80;;;;;;;;;;21006379;28;20270;-74
2022/10/25 22:32:23;;;;;;;4.10;1.63;;;;;;;;;;20992449;28;20235;-74
2022/10/25 22:42:25;;;;;;;2.83;1.30;;;;;;;;;;20988826;28;20695;-74
2022/10/25 22:52:27;;;;;;;1.57;1.17;;;;;;;;;;20971769;28;20213;-74
2022/10/25 23:02:28;;;;;;;1.47;0.70;;;;;;;;;;20989928;28;20221;-74
2022/10/25 23:12:30;;;;;;;2.50;1.30;;;;;;;;;;21009238;28;20197;-74
2022/10/25 23:22:31;;;;;;;2.20;0.93;;;;;;;;;;21006765;28;20535;-74
2022/10/25 23:32:33;;;;;;;2.93;1.00;;;;;;;;;;21009461;28;20308;-74
2022/10/25 23:42:35;;;;;;;3.27;1.10;;;;;;;;;;20984559;28;20750;-74
2022/10/25 23:52:37;;;;;;;2.50;1.00;;;;;;;;;;20997811;28;20209;-74
